Time;durP1;ratioP1;P1;durP2;ratioP2;P2;SDS_P1;SDS_P2;PMS_P1;PMS_P2;Temp;Humidity;BMP_temperature;BMP_pressure;BME280_temperature;BME280_humidity;BME280_pressure;Samples;Min_cycle;Max_cycle;Signal;HPM_P1;HPM_P2
2021/10/13 00:01:42;;;;;;;30.50;20.20;;;;;;;8.49;68.20;99078.86;116447;1201;138396;-59
2021/10/13 00:04:11;;;;;;;35.30;21.00;;;;;;;8.50;68.46;99086.80;116544;1202;23171;-58
2021/10/13 00:06:39;;;;;;;34.80;19.70;;;;;;;8.50;68.45;99084.02;116398;1200;138921;-58
2021/10/13 00:09:07;;;;;;;30.10;19.20;;;;;;;8.50;68.57;99078.44;116505;1201;24204;-59
2021/10/13 00:11:37;;;;;;;30.10;18.30;;;;;;;8.49;68.57;99073.98;116501;1202;23481;-58
2021/10/13 00:14:05;;;;;;;25.40;18.50;;;;;;;8.45;68.67;99065.89;116337;1202;138300;-58
2021/10/13 00:16:38;;;;;;;33.20;19.40;;;;;;;8.42;68.91;99066.98;116512;1202;22363;-58
2021/10/13 00:19:06;;;;;;;32.90;19.90;;;;;;;8.38;69.05;99062.48;116423;1200;139107;-58
2021/10/13 00:21:34;;;;;;;29.80;19.20;;;;;;;8.35;69.42;99064.48;116511;1202;23340;-59
2021/10/13 00:24:02;;;;;;;29.30;18.80;;;;;;;8.32;69.41;99068.23;116527;1201;23089;-59
2021/10/13 00:26:31;;;;;;;33.00;19.70;;;;;;;8.29;69.63;99064.59;116393;1195;138048;-58
2021/10/13 00:28:59;;;;;;;32.90;19.80;;;;;;;8.28;69.83;99067.55;116496;1201;22306;-59
2021/10/13 00:31:27;;;;;;;36.30;21.30;;;;;;;8.28;69.89;99061.59;116435;1202;137828;-59
2021/10/13 00:33:55;;;;;;;35.10;19.80;;;;;;;8.27;69.84;99055.60;116491;1202;22342;-59
2021/10/13 00:36:24;;;;;;;34.80;20.50;;;;;;;8.25;70.14;99056.60;116083;1202;137868;-59
2021/10/13 00:38:52;;;;;;;29.10;19.20;;;;;;;8.24;70.21;99063.77;116512;1202;22252;-59
2021/10/13 00:41:20;;;;;;;32.50;19.70;;;;;;;8.24;70.27;99061.43;116499;1201;22379;-58
2021/10/13 00:43:48;;;;;;;32.10;19.60;;;;;;;8.24;70.28;99064.30;116371;1202;138764;-59
2021/10/13 00:46:16;;;;;;;35.70;19.00;;;;;;;8.25;70.32;99068.16;116505;1201;22388;-58
2021/10/13 00:48:44;;;;;;;31.80;19.80;;;;;;;8.26;70.40;99065.90;116417;1202;138287;-58
2021/10/13 00:51:12;;;;;;;28.10;19.00;;;;;;;8.26;70.37;99064.77;116531;1202;23133;-58
2021/10/13 00:53:41;;;;;;;26.90;17.80;;;;;;;8.26;70.44;99064.77;116429;1202;23079;-58
2021/10/13 00:56:24;;;;;;;28.00;18.20;;;;;;;8.26;70.36;99063.13;116417;1202;137621;-58
2021/10/13 00:58:53;;;;;;;35.60;19.30;;;;;;;8.24;70.28;99065.77;116424;1201;22340;-58
2021/10/13 01:01:24;;;;;;;27.30;17.20;;;;;;;8.23;70.22;99064.09;116428;1202;138381;-58
2021/10/13 01:04:01;;;;;;;24.30;16.80;;;;;;;8.22;70.45;99064.78;116470;1198;22304;-58
2021/10/13 01:06:40;;;;;;;33.70;18.00;;;;;;;8.21;70.38;99067.27;116350;1202;138483;-58
2021/10/13 01:09:27;;;;;;;28.70;21.30;;;;;;;8.21;70.44;99063.80;116426;1202;22313;-59
2021/10/13 01:12:20;;;;;;;27.60;17.40;;;;;;;8.22;70.54;99058.00;116420;1202;22311;-59
2021/10/13 01:15:10;;;;;;;26.00;16.80;;;;;;;8.23;70.55;99059.69;116341;1202;137636;-59
2021/10/13 01:17:41;;;;;;;28.80;18.60;;;;;;;8.22;70.61;99058.74;116502;1201;22340;-59
2021/10/13 01:21:03;;;;;;;26.10;18.20;;;;;;;8.21;70.62;99060.42;116221;1202;138431;-59
2021/10/13 01:24:05;;;;;;;29.80;18.00;;;;;;;8.17;70.88;99060.27;116533;1202;22364;-59
2021/10/13 01:26:45;;;;;;;28.50;17.20;;;;;;;8.14;70.92;99061.59;116376;1202;138111;-57
2021/10/13 01:29:15;;;;;;;28.90;18.90;;;;;;;8.13;71.01;99057.34;116391;1202;22330;-58
2021/10/13 01:31:47;;;;;;;30.70;18.10;;;;;;;8.10;70.98;99058.34;116300;1201;138203;-58
2021/10/13 01:34:22;;;;;;;30.60;18.50;;;;;;;8.08;70.90;99061.07;116477;1202;23074;-58
2021/10/13 01:36:54;;;;;;;28.90;18.50;;;;;;;8.05;71.03;99054.98;116369;1202;138759;-58
2021/10/13 01:39:23;;;;;;;32.30;19.60;;;;;;;8.03;71.13;99058.05;116306;1201;22299;-59
2021/10/13 01:41:53;;;;;;;35.40;18.90;;;;;;;8.01;71.12;99065.02;116391;1202;23551;-58
2021/10/13 01:44:21;;;;;;;28.40;18.60;;;;;;;8.00;71.15;99060.77;116138;1201;137680;-58
2021/10/13 01:46:49;;;;;;;29.20;19.40;;;;;;;7.98;71.29;99065.09;116427;1202;22347;-59
2021/10/13 01:49:17;;;;;;;28.40;19.40;;;;;;;7.96;71.25;99066.47;116370;1202;138169;-58
2021/10/13 01:51:46;;;;;;;28.50;18.40;;;;;;;7.93;71.40;99067.19;116530;1203;22934;-58
2021/10/13 01:54:14;;;;;;;29.90;19.50;;;;;;;7.89;71.35;99067.25;116065;1202;23117;-59
2021/10/13 01:56:42;;;;;;;29.80;19.60;;;;;;;7.86;71.39;99069.53;116550;1201;137547;-59
2021/10/13 02:01:00;;;;;;;29.50;18.70;;;;;;;7.80;71.57;99066.48;111034;1213;545493;-59
2021/10/13 02:03:30;;;;;;;31.90;19.40;;;;;;;7.73;71.68;99071.11;111961;1204;22437;-58
2021/10/13 02:06:00;;;;;;;28.90;19.60;;;;;;;7.68;71.99;99072.92;111948;1200;25082;-58
2021/10/13 02:08:31;;;;;;;31.00;19.80;;;;;;;7.61;72.21;99077.30;111774;1204;138226;-59
2021/10/13 02:10:59;;;;;;;30.10;20.10;;;;;;;7.55;72.56;99074.58;116017;1205;22254;-60
2021/10/13 02:13:47;;;;;;;29.60;19.50;;;;;;;7.47;72.72;99076.55;116057;1204;137972;-59
2021/10/13 02:16:15;;;;;;;36.70;22.30;;;;;;;7.41;72.96;99078.61;116200;1204;22229;-59
2021/10/13 02:18:43;;;;;;;33.30;21.40;;;;;;;7.37;73.11;99080.01;116033;1204;138352;-59
2021/10/13 02:21:12;;;;;;;32.20;22.10;;;;;;;7.33;73.20;99086.36;116673;1199;22341;-60
2021/10/13 02:23:40;;;;;;;34.80;22.50;;;;;;;7.31;73.49;99091.70;116585;1200;22324;-60
2021/10/13 02:26:23;;;;;;;40.90;22.50;;;;;;;7.29;73.71;99094.96;116505;1200;138854;-59
2021/10/13 02:28:56;;;;;;;34.70;22.20;;;;;;;7.27;73.66;99091.02;116633;1201;23365;-59
2021/10/13 02:31:24;;;;;;;35.90;23.30;;;;;;;7.25;73.67;99097.93;116556;1200;138545;-59
2021/10/13 02:33:54;;;;;;;34.40;22.20;;;;;;;7.24;73.70;99099.00;116676;1200;22431;-59
2021/10/13 02:36:22;;;;;;;34.90;23.60;;;;;;;7.23;73.87;99096.27;116666;1193;22290;-59
2021/10/13 02:38:50;;;;;;;34.20;21.60;;;;;;;7.20;74.06;99096.45;116600;1200;137429;-60
2021/10/13 02:41:18;;;;;;;31.00;22.00;;;;;;;7.17;74.14;99095.95;116700;1200;22341;-59
2021/10/13 02:43:47;;;;;;;33.10;21.70;;;;;;;7.13;74.33;99097.51;116546;1200;137328;-59
2021/10/13 02:46:33;;;;;;;31.20;22.20;;;;;;;7.08;74.65;99098.73;116662;1200;23410;-63
2021/10/13 02:49:31;;;;;;;36.40;22.50;;;;;;;7.05;74.71;99097.08;116563;1200;138095;-63
2021/10/13 02:52:06;;;;;;;;;;;;;;;7.05;75.13;99092.63;116729;1200;22323;-64
2021/10/13 02:54:58;;;;;;;29.40;19.70;;;;;;;7.06;75.27;99096.11;116486;1200;124852;-63
2021/10/13 02:57:32;;;;;;;38.60;23.20;;;;;;;7.08;75.49;99093.20;116682;1200;22939;-63
2021/10/13 03:00:03;;;;;;;43.20;25.00;;;;;;;7.10;75.53;99092.05;116686;1200;23139;-64
2021/10/13 03:02:34;;;;;;;35.90;23.00;;;;;;;7.10;75.41;99093.26;116540;1193;137354;-64
2021/10/13 03:05:02;;;;;;;38.30;22.70;;;;;;;7.10;75.58;99097.69;116616;1201;23131;-64
2021/10/13 03:07:36;;;;;;;38.30;23.80;;;;;;;7.13;75.42;99104.83;116615;1200;138660;-64
2021/10/13 03:10:05;;;;;;;37.30;23.60;;;;;;;7.15;75.37;99104.16;116685;1200;22700;-64
2021/10/13 03:12:44;;;;;;;34.20;23.00;;;;;;;7.15;75.75;99099.41;116513;1201;138309;-64
2021/10/13 03:15:12;;;;;;;34.30;23.40;;;;;;;7.16;75.42;99097.25;116651;1200;22337;-60
2021/10/13 03:17:40;;;;;;;36.20;23.80;;;;;;;7.16;75.38;99098.06;116614;1200;23019;-59
2021/10/13 03:20:09;;;;;;;38.40;23.00;;;;;;;7.16;75.29;99105.11;116521;1201;138017;-60
2021/10/13 03:22:37;;;;;;;39.70;24.30;;;;;;;7.16;75.20;99108.63;116588;1201;22231;-59
2021/10/13 03:25:05;;;;;;;36.80;24.00;;;;;;;7.16;75.34;99106.56;116552;1200;137993;-59
2021/10/13 03:27:34;;;;;;;38.70;24.30;;;;;;;7.15;75.17;99107.58;116683;1201;22301;-59
2021/10/13 03:30:03;;;;;;;35.10;23.30;;;;;;;7.15;75.27;99107.08;116600;1201;23375;-60
2021/10/13 03:32:31;;;;;;;42.00;24.90;;;;;;;7.15;75.19;99110.34;116585;1193;138438;-59
2021/10/13 03:34:59;;;;;;;40.30;26.10;;;;;;;7.15;75.17;99113.38;116643;1200;22338;-59
2021/10/13 03:37:27;;;;;;;43.10;25.40;;;;;;;7.16;75.16;99118.69;116525;1200;137968;-59
2021/10/13 03:39:56;;;;;;;41.20;25.10;;;;;;;7.16;75.34;99113.19;116716;1199;23003;-59
2021/10/13 03:42:24;;;;;;;37.90;24.90;;;;;;;7.17;75.18;99110.91;116682;1200;22308;-59
2021/10/13 03:44:52;;;;;;;41.10;25.50;;;;;;;7.17;74.94;99113.04;116553;1201;138083;-59
2021/10/13 03:47:20;;;;;;;44.00;26.20;;;;;;;7.16;75.18;99118.27;112791;1196;25087;-59
2021/10/13 03:49:48;;;;;;;40.50;25.70;;;;;;;7.15;75.17;99122.04;116367;1201;137952;-59
2021/10/13 03:52:17;;;;;;;40.40;25.90;;;;;;;7.15;75.07;99120.04;116712;1201;22273;-58
2021/10/13 03:54:45;;;;;;;39.40;25.60;;;;;;;7.15;75.15;99115.33;116479;1200;138378;-59
2021/10/13 03:57:14;;;;;;;36.20;25.30;;;;;;;7.16;75.26;99111.11;116644;1193;22238;-59
2021/10/13 03:59:42;;;;;;;40.70;25.00;;;;;;;7.15;75.13;99107.79;116715;1201;22214;-59
2021/10/13 04:02:11;;;;;;;36.70;24.70;;;;;;;7.13;75.13;99111.50;116511;1200;137660;-59
2021/10/13 04:04:40;;;;;;;36.00;23.60;;;;;;;7.12;75.00;99111.52;116673;1201;22340;-59
2021/10/13 04:07:08;;;;;;;35.50;23.70;;;;;;;7.10;74.93;99109.11;116567;1200;138282;-59
2021/10/13 04:09:36;;;;;;;38.80;24.50;;;;;;;7.07;75.22;99108.75;116694;1200;22319;-60
2021/10/13 04:12:11;;;;;;;44.00;25.60;;;;;;;7.05;75.24;99105.95;116633;1201;22237;-59
2021/10/13 04:14:39;;;;;;;41.20;25.50;;;;;;;7.03;75.18;99109.23;116545;1200;138230;-60
2021/10/13 04:17:07;;;;;;;34.40;23.00;;;;;;;7.00;75.45;99104.23;116620;1200;22341;-59
2021/10/13 04:19:36;;;;;;;40.10;25.00;;;;;;;6.98;75.35;99105.07;116543;1201;138784;-59
2021/10/13 04:22:04;;;;;;;39.60;24.30;;;;;;;6.97;75.27;99106.55;116673;1200;22976;-60
2021/10/13 04:24:32;;;;;;;36.30;24.40;;;;;;;6.93;75.60;99103.95;116553;1199;139388;-60
2021/10/13 04:27:00;;;;;;;38.30;26.00;;;;;;;6.86;75.92;99100.80;116556;1196;22330;-59
2021/10/13 04:29:28;;;;;;;41.40;25.90;;;;;;;6.83;76.18;99106.96;116693;1201;22547;-59
2021/10/13 04:31:56;;;;;;;36.20;24.80;;;;;;;6.80;76.37;99110.69;116527;1200;137926;-59
2021/10/13 04:34:24;;;;;;;36.70;23.40;;;;;;;6.76;76.54;99110.05;116636;1200;22718;-59
2021/10/13 04:36:52;;;;;;;36.70;25.60;;;;;;;6.73;76.93;99108.95;116516;1200;137841;-59
2021/10/13 04:39:20;;;;;;;41.70;25.60;;;;;;;6.70;76.99;99115.35;116652;1199;22231;-59
2021/10/13 04:41:48;;;;;;;35.30;24.60;;;;;;;6.68;77.13;99117.26;116662;1186;22331;-59
2021/10/13 04:44:16;;;;;;;41.50;26.50;;;;;;;6.66;77.32;99125.29;116530;1193;138151;-58
2021/10/13 04:46:44;;;;;;;37.20;26.30;;;;;;;6.64;77.54;99125.25;116636;1201;22350;-59
2021/10/13 04:49:12;;;;;;;44.10;26.60;;;;;;;6.62;77.72;99123.33;116576;1200;138170;-59
2021/10/13 04:51:43;;;;;;;40.90;27.50;;;;;;;6.59;77.61;99120.14;116650;1201;22368;-59
2021/10/13 04:54:11;;;;;;;42.60;27.60;;;;;;;6.57;77.90;99120.27;116604;1197;22106;-59
2021/10/13 04:56:39;;;;;;;38.70;27.20;;;;;;;6.57;77.77;99127.99;116517;1200;138141;-59
2021/10/13 04:59:07;;;;;;;49.30;28.50;;;;;;;6.57;78.06;99138.66;116595;1199;22340;-58
2021/10/13 05:01:35;;;;;;;40.00;27.20;;;;;;;6.57;77.79;99143.46;116564;1199;138089;-59
2021/10/13 05:04:03;;;;;;;40.30;27.50;;;;;;;6.56;78.01;99144.38;116688;1200;23490;-59
2021/10/13 05:06:32;;;;;;;42.60;27.50;;;;;;;6.57;78.12;99150.73;116536;1200;138205;-59
2021/10/13 05:09:00;;;;;;;47.80;29.90;;;;;;;6.58;78.01;99149.84;116604;1201;22348;-61
2021/10/13 05:11:28;;;;;;;39.80;27.20;;;;;;;6.61;78.16;99152.00;116644;1200;22335;-59
2021/10/13 05:13:56;;;;;;;40.70;28.10;;;;;;;6.62;78.05;99152.52;116507;1201;137640;-60
2021/10/13 05:16:24;;;;;;;42.80;27.90;;;;;;;6.62;78.00;99151.32;116648;1200;22879;-59
2021/10/13 05:18:53;;;;;;;43.60;27.60;;;;;;;6.62;78.18;99152.23;116460;1200;137695;-59
2021/10/13 05:21:21;;;;;;;41.60;27.00;;;;;;;6.59;77.94;99148.23;116656;1201;22401;-59
2021/10/13 05:23:49;;;;;;;41.00;27.30;;;;;;;6.58;78.13;99145.67;116683;1201;26228;-59
2021/10/13 05:26:18;;;;;;;43.40;27.50;;;;;;;6.60;78.27;99151.98;116521;1201;138996;-59
2021/10/13 05:28:46;;;;;;;43.40;26.10;;;;;;;6.61;78.02;99157.31;116637;1200;22999;-60
2021/10/13 05:31:14;;;;;;;47.00;27.10;;;;;;;6.64;78.23;99159.30;116441;1201;138194;-59
2021/10/13 05:33:42;;;;;;;37.40;26.10;;;;;;;6.66;78.32;99158.40;116622;1201;22331;-58
2021/10/13 05:36:10;;;;;;;41.90;26.70;;;;;;;6.69;78.28;99159.39;116694;1201;23489;-59
2021/10/13 05:38:55;;;;;;;41.60;28.40;;;;;;;6.72;78.11;99162.81;116462;1201;138306;-58
2021/10/13 05:41:23;;;;;;;47.90;29.60;;;;;;;6.74;78.22;99164.61;116635;1200;22234;-59
2021/10/13 05:43:52;;;;;;;49.20;29.00;;;;;;;6.78;78.09;99171.43;116473;1201;137750;-59
2021/10/13 05:46:20;;;;;;;43.70;28.80;;;;;;;6.78;78.22;99177.39;116685;1200;22388;-58
2021/10/13 05:48:48;;;;;;;61.30;35.30;;;;;;;6.79;78.12;99178.36;116539;1201;138643;-58
2021/10/13 05:51:16;;;;;;;41.90;28.10;;;;;;;6.77;78.17;99176.67;116565;1193;22285;-59
2021/10/13 05:53:44;;;;;;;43.80;27.70;;;;;;;6.77;78.08;99173.43;116626;1201;24310;-64
2021/10/13 05:56:12;;;;;;;45.40;29.90;;;;;;;6.77;78.20;99174.12;116537;1201;138677;-59
2021/10/13 05:58:41;;;;;;;43.20;28.90;;;;;;;6.77;78.39;99172.73;116659;1200;22422;-59
2021/10/13 06:01:09;;;;;;;42.60;29.50;;;;;;;6.80;78.48;99173.80;116561;1200;137839;-59
2021/10/13 06:03:39;;;;;;;43.60;28.00;;;;;;;6.83;78.56;99180.95;116676;1200;22551;-59
2021/10/13 06:06:07;;;;;;;39.60;28.20;;;;;;;6.85;78.33;99182.77;116699;1200;22447;-59
2021/10/13 06:08:35;;;;;;;38.80;27.50;;;;;;;6.91;78.51;99186.95;116603;1200;137536;-58
2021/10/13 06:11:03;;;;;;;45.20;28.60;;;;;;;6.95;78.32;99185.72;116682;1200;22120;-59
2021/10/13 06:13:31;;;;;;;43.10;26.20;;;;;;;7.00;78.37;99187.98;116557;1200;138774;-59
2021/10/13 06:15:59;;;;;;;38.90;25.90;;;;;;;7.06;78.30;99192.27;115228;1200;25005;-59
2021/10/13 06:18:27;;;;;;;46.30;27.10;;;;;;;7.12;78.31;99188.95;112357;1200;24032;-59
2021/10/13 06:20:55;;;;;;;32.60;23.50;;;;;;;7.18;78.10;99186.16;116557;1200;137924;-58
2021/10/13 06:23:24;;;;;;;35.40;24.70;;;;;;;7.24;78.12;99183.80;116718;1200;22346;-59
2021/10/13 06:25:53;;;;;;;32.20;23.80;;;;;;;7.28;77.83;99184.04;116583;1200;139341;-58
2021/10/13 06:28:22;;;;;;;33.70;22.80;;;;;;;7.33;77.54;99180.61;116709;1201;23159;-58
2021/10/13 06:30:50;;;;;;;36.50;22.80;;;;;;;7.36;77.26;99181.41;116650;1199;139177;-59
2021/10/13 06:33:18;;;;;;;32.90;23.80;;;;;;;7.41;76.98;99184.85;116793;1200;22365;-58
2021/10/13 06:35:46;;;;;;;27.80;20.90;;;;;;;7.45;76.87;99186.72;116776;1193;23563;-59
2021/10/13 06:38:14;;;;;;;34.30;21.20;;;;;;;7.50;76.45;99188.97;116517;1200;137709;-58
2021/10/13 06:40:42;;;;;;;35.60;21.70;;;;;;;7.54;76.42;99193.95;116776;1200;22172;-58
2021/10/13 06:43:11;;;;;;;32.00;23.00;;;;;;;7.54;76.30;99193.20;116575;1200;137993;-59
2021/10/13 06:45:41;;;;;;;30.30;21.10;;;;;;;7.59;76.17;99198.44;116711;1200;22376;-59
2021/10/13 06:48:09;;;;;;;31.20;20.80;;;;;;;7.61;76.13;99207.10;116701;1200;22378;-58
2021/10/13 06:50:37;;;;;;;31.20;21.40;;;;;;;7.62;76.13;99204.41;116616;1200;138414;-59
2021/10/13 06:53:05;;;;;;;34.40;23.40;;;;;;;7.63;75.97;99201.88;116749;1200;23026;-59
2021/10/13 06:55:33;;;;;;;32.80;21.40;;;;;;;7.64;76.07;99205.20;116571;1200;138572;-59
2021/10/13 06:58:01;;;;;;;30.20;21.00;;;;;;;7.65;76.26;99200.52;116619;1200;22434;-60
2021/10/13 07:00:29;;;;;;;33.50;20.80;;;;;;;7.65;76.01;99203.23;116748;1200;22294;-59
2021/10/13 07:02:58;;;;;;;28.20;20.00;;;;;;;7.66;76.17;99200.49;116536;1199;137439;-59
2021/10/13 07:05:27;;;;;;;31.60;20.70;;;;;;;7.66;76.16;99204.99;116764;1200;22419;-58
2021/10/13 07:07:55;;;;;;;36.30;22.70;;;;;;;7.65;76.22;99210.57;116583;1200;137481;-59
2021/10/13 07:10:23;;;;;;;31.30;21.60;;;;;;;7.63;76.15;99210.55;116689;1200;22228;-58
2021/10/13 07:12:51;;;;;;;32.50;20.40;;;;;;;7.62;76.22;99209.83;116671;1199;139224;-59
2021/10/13 07:15:21;;;;;;;29.00;21.40;;;;;;;7.60;76.42;99206.21;116753;1200;22288;-59
2021/10/13 07:17:49;;;;;;;33.20;21.90;;;;;;;7.60;76.20;99204.41;116728;1200;22536;-58
2021/10/13 07:20:17;;;;;;;31.80;21.60;;;;;;;7.58;76.29;99198.70;116622;1200;138766;-59
2021/10/13 07:22:46;;;;;;;34.70;23.20;;;;;;;7.59;76.31;99196.97;116766;1200;22321;-59
2021/10/13 07:25:19;;;;;;;33.60;22.00;;;;;;;7.60;76.46;99195.48;116486;1200;138218;-58
2021/10/13 07:27:47;;;;;;;33.50;22.30;;;;;;;7.63;76.46;99200.63;116583;1201;23112;-59
2021/10/13 07:30:18;;;;;;;29.80;20.30;;;;;;;7.65;76.41;99197.11;116806;1200;22429;-58
2021/10/13 07:32:46;;;;;;;33.20;21.00;;;;;;;7.68;76.37;99198.95;116673;1199;138375;-58
2021/10/13 07:35:21;;;;;;;30.50;20.80;;;;;;;7.71;76.36;99202.64;116731;1200;22407;-59
2021/10/13 07:37:50;;;;;;;33.40;20.60;;;;;;;7.70;76.20;99207.19;116574;1200;139095;-58
2021/10/13 07:40:18;;;;;;;28.00;20.30;;;;;;;7.69;76.03;99208.68;116678;1200;22263;-58
2021/10/13 07:42:47;;;;;;;33.60;21.50;;;;;;;7.69;76.10;99208.52;116659;1200;138199;-59
2021/10/13 07:45:18;;;;;;;37.10;23.40;;;;;;;7.69;76.10;99206.73;116697;1201;22296;-59
2021/10/13 07:47:49;;;;;;;29.90;19.60;;;;;;;7.73;76.13;99210.38;116728;1200;23420;-59
2021/10/13 07:50:17;;;;;;;30.80;21.20;;;;;;;7.75;75.95;99212.10;116607;1200;138593;-59
2021/10/13 07:52:45;;;;;;;32.10;20.80;;;;;;;7.75;76.01;99210.16;116818;1200;23299;-58
2021/10/13 07:55:13;;;;;;;27.10;20.20;;;;;;;7.76;75.93;99204.89;116486;1201;138341;-59
2021/10/13 07:57:41;;;;;;;27.50;19.50;;;;;;;7.78;76.11;99202.98;116742;1199;23104;-58
2021/10/13 08:00:09;;;;;;;30.80;20.30;;;;;;;7.81;76.14;99205.40;116688;1193;22410;-58
2021/10/13 08:02:46;;;;;;;30.50;20.60;;;;;;;7.86;76.02;99207.91;116556;1200;138163;-58
2021/10/13 08:05:16;;;;;;;26.00;18.50;;;;;;;7.88;75.77;99205.95;116684;1201;22169;-58
2021/10/13 08:07:44;;;;;;;29.00;20.10;;;;;;;7.90;75.56;99208.25;116514;1200;137715;-58
2021/10/13 08:10:13;;;;;;;27.90;19.50;;;;;;;7.91;75.76;99212.89;116744;1200;23342;-58
2021/10/13 08:12:41;;;;;;;27.00;19.00;;;;;;;7.94;75.56;99214.88;116589;1200;138778;-58
2021/10/13 08:15:10;;;;;;;30.00;19.10;;;;;;;7.98;75.49;99216.23;116677;1193;22326;-58
2021/10/13 08:17:40;;;;;;;26.10;19.30;;;;;;;7.98;75.16;99211.85;116669;1200;22383;-58
2021/10/13 08:20:10;;;;;;;26.30;19.60;;;;;;;7.99;75.05;99212.17;116588;1200;137833;-58
2021/10/13 08:22:38;;;;;;;26.30;19.70;;;;;;;7.97;74.97;99207.27;116758;1199;23128;-57
2021/10/13 08:25:08;;;;;;;30.90;18.90;;;;;;;7.98;74.82;99208.27;116681;1199;137884;-61
2021/10/13 08:27:36;;;;;;;24.60;18.90;;;;;;;7.98;74.71;99207.02;116768;1199;22294;-62
2021/10/13 08:30:05;;;;;;;28.00;19.00;;;;;;;8.01;74.79;99208.37;116801;1200;22427;-62
2021/10/13 08:32:33;;;;;;;34.10;18.70;;;;;;;8.04;74.79;99206.58;116702;1200;137798;-62
2021/10/13 08:35:04;;;;;;;24.70;17.80;;;;;;;8.06;74.57;99206.73;116655;1200;22288;-64
2021/10/13 08:37:33;;;;;;;26.90;17.90;;;;;;;8.06;74.54;99202.69;116538;1200;137735;-63
2021/10/13 08:40:02;;;;;;;25.50;17.90;;;;;;;8.06;74.45;99202.11;116793;1200;22218;-63
2021/10/13 08:42:30;;;;;;;25.90;18.10;;;;;;;8.08;74.59;99202.21;116696;1200;22891;-64
2021/10/13 08:44:58;;;;;;;31.10;20.20;;;;;;;8.10;74.62;99204.31;116566;1200;137917;-61
2021/10/13 08:47:26;;;;;;;28.70;18.90;;;;;;;8.12;74.38;99200.66;116753;1200;22394;-62
2021/10/13 08:49:56;;;;;;;29.80;19.40;;;;;;;8.15;74.41;99205.21;116662;1200;137870;-61
2021/10/13 08:52:24;;;;;;;24.90;17.50;;;;;;;8.18;74.25;99201.77;116772;1200;22378;-62
2021/10/13 08:54:55;;;;;;;27.80;18.60;;;;;;;8.20;74.12;99197.85;116649;1199;138629;-62
2021/10/13 08:57:23;;;;;;;27.20;19.00;;;;;;;8.22;74.19;99199.27;116830;1199;22303;-62
2021/10/13 08:59:51;;;;;;;29.70;20.10;;;;;;;8.28;74.30;99204.63;116622;1200;23542;-62
2021/10/13 09:02:37;;;;;;;25.30;18.30;;;;;;;8.33;74.20;99207.33;116666;1200;137722;-62
2021/10/13 09:05:12;;;;;;;30.80;19.70;;;;;;;8.38;73.98;99203.20;116758;1200;23031;-62
2021/10/13 09:07:51;;;;;;;30.70;19.00;;;;;;;8.41;73.87;99208.63;116558;1195;138124;-62
2021/10/13 09:10:29;;;;;;;31.40;19.90;;;;;;;8.43;73.61;99207.02;116666;1200;22326;-62
2021/10/13 09:13:02;;;;;;;32.10;19.50;;;;;;;8.45;73.58;99210.41;116677;1195;138983;-62
2021/10/13 09:15:31;;;;;;;25.70;19.60;;;;;;;8.46;73.28;99215.77;116751;1200;22328;-62
2021/10/13 09:18:04;;;;;;;26.90;19.60;;;;;;;8.48;72.97;99217.52;116603;1201;22366;-62
2021/10/13 09:20:37;;;;;;;32.40;19.50;;;;;;;8.49;72.79;99215.41;116674;1200;139060;-62
2021/10/13 09:23:29;;;;;;;29.70;19.90;;;;;;;8.50;72.72;99214.02;116729;1200;22381;-62
2021/10/13 09:26:07;;;;;;;;;;;;;;;8.52;72.40;99214.95;116649;1200;137976;-62
2021/10/13 09:28:40;;;;;;;26.90;19.10;;;;;;;8.56;72.26;99218.09;116785;1200;22475;-62
2021/10/13 09:31:18;;;;;;;30.80;18.90;;;;;;;8.57;72.17;99222.30;116634;1200;137924;-61
2021/10/13 09:33:58;;;;;;;37.30;21.20;;;;;;;8.59;72.02;99219.29;116758;1200;23133;-62
2021/10/13 09:36:33;;;;;;;28.60;19.10;;;;;;;8.62;71.98;99222.80;116646;1200;22366;-62
2021/10/13 09:39:19;;;;;;;31.50;21.20;;;;;;;8.63;71.93;99219.14;116608;1200;138696;-62
2021/10/13 09:41:55;;;;;;;29.60;20.40;;;;;;;8.67;71.63;99220.40;116813;1200;22348;-62
2021/10/13 09:44:23;;;;;;;35.20;21.60;;;;;;;8.68;71.54;99216.62;116618;1200;137968;-62
2021/10/13 09:46:58;;;;;;;26.30;19.50;;;;;;;8.70;71.34;99215.08;116753;1200;22723;-62
2021/10/13 09:49:26;;;;;;;27.50;19.90;;;;;;;8.71;71.06;99218.52;116547;1200;138873;-62
2021/10/13 09:52:11;;;;;;;38.30;21.70;;;;;;;8.73;70.98;99216.30;116711;1200;22315;-62
2021/10/13 09:54:41;;;;;;;39.70;21.60;;;;;;;8.73;70.96;99217.79;116620;1200;139025;-62
2021/10/13 09:57:26;;;;;;;34.40;20.60;;;;;;;8.75;71.06;99215.85;113120;1200;22444;-61
2021/10/13 10:00:08;;;;;;;35.50;21.50;;;;;;;8.78;71.00;99220.89;116758;1200;22375;-62
2021/10/13 10:02:46;;;;;;;48.00;22.60;;;;;;;8.79;71.14;99221.17;116530;1201;137682;-62
2021/10/13 10:05:29;;;;;;;34.90;22.30;;;;;;;8.82;71.19;99220.32;116702;1201;22245;-62
2021/10/13 10:08:01;;;;;;;42.00;22.80;;;;;;;8.84;71.21;99219.59;116612;1200;138007;-62
2021/10/13 10:10:29;;;;;;;36.50;23.50;;;;;;;8.84;71.24;99216.66;116635;1200;22316;-62
2021/10/13 10:13:05;;;;;;;30.60;20.80;;;;;;;8.83;71.14;99213.81;116677;1200;137951;-62
2021/10/13 10:15:41;;;;;;;36.60;23.20;;;;;;;8.83;71.13;99214.73;116719;1200;22246;-62
2021/10/13 10:18:37;;;;;;;29.50;21.70;;;;;;;8.85;71.14;99218.14;116726;1200;22326;-62
2021/10/13 10:21:19;;;;;;;31.10;20.60;;;;;;;8.88;70.78;99217.20;116580;1200;138179;-62
2021/10/13 10:23:51;;;;;;;33.80;21.40;;;;;;;8.91;70.87;99211.84;116733;1200;23697;-62
2021/10/13 10:26:25;;;;;;;33.20;21.90;;;;;;;8.94;70.60;99216.07;116666;1200;139003;-62
2021/10/13 10:29:01;;;;;;;27.60;19.80;;;;;;;8.96;70.54;99208.89;116784;1200;22400;-62
2021/10/13 10:31:29;;;;;;;33.60;19.70;;;;;;;8.97;70.48;99213.27;116617;1200;137823;-62
2021/10/13 10:34:03;;;;;;;30.10;17.80;;;;;;;8.98;70.27;99213.28;116690;1201;22797;-62
2021/10/13 10:36:34;;;;;;;27.50;17.00;;;;;;;9.00;69.58;99218.20;116750;1200;22262;-61
2021/10/13 10:39:03;;;;;;;23.90;16.20;;;;;;;9.02;69.28;99216.20;116596;1200;138183;-61
2021/10/13 10:41:48;;;;;;;22.60;16.70;;;;;;;9.03;69.19;99217.31;116793;1200;22283;-61
2021/10/13 10:44:41;;;;;;;22.90;16.10;;;;;;;9.06;69.30;99216.97;116654;1199;138916;-62
2021/10/13 10:47:14;;;;;;;24.70;15.90;;;;;;;9.08;69.06;99215.80;116674;1200;22331;-62
2021/10/13 10:49:46;;;;;;;26.00;16.50;;;;;;;9.10;68.79;99217.85;116616;1200;139053;-61
2021/10/13 10:52:19;;;;;;;26.80;16.10;;;;;;;9.11;68.57;99213.85;116603;1200;22770;-62
2021/10/13 10:54:51;;;;;;;28.70;17.20;;;;;;;9.12;68.55;99216.70;116617;1200;139055;-61
2021/10/13 10:57:29;;;;;;;28.40;18.00;;;;;;;9.14;68.54;99216.23;116779;1200;22295;-61
2021/10/13 10:59:57;;;;;;;20.50;15.70;;;;;;;9.16;68.35;99219.46;116674;1200;22791;-62
2021/10/13 11:02:25;;;;;;;23.40;16.50;;;;;;;9.20;68.15;99215.42;116505;1200;138258;-62
2021/10/13 11:05:04;;;;;;;24.20;16.90;;;;;;;9.24;67.95;99220.45;116730;1200;22240;-62
2021/10/13 11:07:38;;;;;;;21.40;15.60;;;;;;;9.26;67.86;99214.88;116576;1194;139132;-63
2021/10/13 11:10:07;;;;;;;27.60;16.90;;;;;;;9.30;67.67;99216.83;116650;1200;23017;-63
2021/10/13 11:12:48;;;;;;;24.60;16.20;;;;;;;9.33;67.30;99216.70;116748;1200;22315;-63
2021/10/13 11:15:17;;;;;;;23.20;15.80;;;;;;;9.35;67.18;99216.89;116550;1201;139732;-63
2021/10/13 11:17:45;;;;;;;21.40;15.30;;;;;;;9.36;67.21;99214.71;116753;1200;22769;-63
2021/10/13 11:20:15;;;;;;;28.00;16.50;;;;;;;9.37;67.03;99210.25;116613;1200;138721;-63
2021/10/13 11:22:43;;;;;;;24.40;16.90;;;;;;;9.39;66.83;99216.85;116737;1200;23448;-63
2021/10/13 11:25:12;;;;;;;23.80;18.40;;;;;;;9.42;67.14;99212.48;116560;1200;138006;-63
2021/10/13 11:27:41;;;;;;;25.60;16.60;;;;;;;9.46;67.15;99211.92;116713;1200;22352;-63
2021/10/13 11:30:19;;;;;;;24.90;16.70;;;;;;;9.49;67.23;99213.54;116755;1193;23071;-63
2021/10/13 11:32:48;;;;;;;26.60;16.40;;;;;;;9.52;66.69;99216.70;116613;1200;137964;-63
2021/10/13 11:35:19;;;;;;;21.30;16.10;;;;;;;9.52;66.59;99213.86;116681;1197;22341;-63